Time;durP1;ratioP1;P1;durP2;ratioP2;P2;SDS_P1;SDS_P2;PMS_P1;PMS_P2;Temp;Humidity;BMP_temperature;BMP_pressure;BME280_temperature;BME280_humidity;BME280_pressure;Samples;Min_cycle;Max_cycle;Signal;HPM_P1;HPM_P2
2021/06/04 00:01:44;;;;;;;10.85;5.82;;;;;;;;;;5058994;28;20028;-71
2021/06/04 00:04:10;;;;;;;8.60;6.13;;;;;;;;;;5076947;28;20024;-71
2021/06/04 00:06:37;;;;;;;10.63;5.90;;;;;;;;;;5076879;28;20028;-72
2021/06/04 00:09:04;;;;;;;6.63;5.32;;;;;;;;;;5076924;28;20029;-69
2021/06/04 00:11:38;;;;;;;10.55;5.88;;;;;;;;;;5076815;28;20111;-70
2021/06/04 00:14:07;;;;;;;6.60;5.22;;;;;;;;;;5076516;28;20024;-70
2021/06/04 00:16:35;;;;;;;6.57;4.82;;;;;;;;;;5058732;28;20506;-73
2021/06/04 00:19:05;;;;;;;9.52;4.97;;;;;;;;;;5076636;28;20107;-71
2021/06/04 00:21:34;;;;;;;6.95;4.70;;;;;;;;;;5076858;28;20055;-72
2021/06/04 00:24:01;;;;;;;7.15;4.82;;;;;;;;;;5076412;28;20170;-70
2021/06/04 00:26:28;;;;;;;6.28;5.53;;;;;;;;;;5058523;28;20054;-70
2021/06/04 00:28:54;;;;;;;12.85;4.78;;;;;;;;;;5076593;28;20032;-70
2021/06/04 00:31:22;;;;;;;8.27;4.80;;;;;;;;;;5076095;28;20024;-71
2021/06/04 00:33:49;;;;;;;10.07;5.00;;;;;;;;;;5076351;28;20025;-70
2021/06/04 00:36:15;;;;;;;9.63;5.13;;;;;;;;;;5058278;28;20024;-71
2021/06/04 00:38:42;;;;;;;7.25;5.13;;;;;;;;;;5058311;28;20493;-71
2021/06/04 00:41:10;;;;;;;8.88;5.30;;;;;;;;;;5057925;28;20029;-72
2021/06/04 00:43:36;;;;;;;7.90;5.35;;;;;;;;;;5058141;28;20107;-71
2021/06/04 00:46:06;;;;;;;6.88;5.45;;;;;;;;;;5076111;28;20021;-71
2021/06/04 00:48:33;;;;;;;8.75;5.25;;;;;;;;;;5076136;28;20024;-70
2021/06/04 00:51:09;;;;;;;9.48;5.30;;;;;;;;;;5076000;28;20107;-71
2021/06/04 00:53:36;;;;;;;6.30;4.95;;;;;;;;;;5075975;28;20017;-70
2021/06/04 00:56:03;;;;;;;14.65;6.60;;;;;;;;;;5075631;28;20115;-71
2021/06/04 00:58:31;;;;;;;8.57;5.72;;;;;;;;;;5075551;28;20108;-73
2021/06/04 01:00:58;;;;;;;9.05;6.32;;;;;;;;;;5057629;28;20028;-70
2021/06/04 01:03:31;;;;;;;6.07;5.13;;;;;;;;;;5076122;28;20158;-72
2021/06/04 01:06:06;;;;;;;8.38;5.88;;;;;;;;;;5075816;28;20020;-70
2021/06/04 01:08:32;;;;;;;8.05;5.57;;;;;;;;;;5075800;28;20465;-70
2021/06/04 01:11:15;;;;;;;7.30;5.88;;;;;;;;;;5057737;28;20478;-71
2021/06/04 01:13:54;;;;;;;11.48;6.45;;;;;;;;;;5075678;28;20056;-71
2021/06/04 01:16:40;;;;;;;7.22;5.65;;;;;;;;;;5057611;28;20535;-71
2021/06/04 01:19:26;;;;;;;8.02;5.82;;;;;;;;;;5057522;28;20028;-71
2021/06/04 01:21:55;;;;;;;8.70;5.90;;;;;;;;;;5075563;28;20039;-70
2021/06/04 01:24:24;;;;;;;8.15;5.80;;;;;;;;;;5075237;28;20062;-71
2021/06/04 01:26:52;;;;;;;9.73;5.80;;;;;;;;;;5075414;28;20020;-71
2021/06/04 01:29:24;;;;;;;10.07;5.22;;;;;;;;;;5057396;28;20544;-71
2021/06/04 01:31:53;;;;;;;7.53;5.00;;;;;;;;;;5057317;28;20378;-70
2021/06/04 01:34:22;;;;;;;8.63;5.03;;;;;;;;;;5075302;28;20028;-71
2021/06/04 01:36:53;;;;;;;8.20;5.10;;;;;;;;;;5075158;28;20078;-70
2021/06/04 01:39:25;;;;;;;7.65;5.43;;;;;;;;;;5075266;28;20135;-70
2021/06/04 01:41:52;;;;;;;8.57;5.35;;;;;;;;;;5075160;28;20031;-71
2021/06/04 01:44:21;;;;;;;9.65;5.70;;;;;;;;;;5057051;28;20024;-71
2021/06/04 01:46:49;;;;;;;12.13;6.00;;;;;;;;;;5075013;28;20055;-72
2021/06/04 01:49:17;;;;;;;7.45;5.47;;;;;;;;;;5075048;28;20115;-71
2021/06/04 01:51:50;;;;;;;9.43;5.80;;;;;;;;;;5075237;28;20055;-70
2021/06/04 01:54:18;;;;;;;10.45;5.43;;;;;;;;;;5074957;28;20384;-70
2021/06/04 01:56:47;;;;;;;14.32;6.43;;;;;;;;;;5074853;28;20077;-71
2021/06/04 01:59:41;;;;;;;9.48;5.90;;;;;;;;;;5056789;28;20032;-72
2021/06/04 02:02:08;;;;;;;9.48;5.70;;;;;;;;;;5070060;28;20033;-70
2021/06/04 02:04:37;;;;;;;9.60;5.80;;;;;;;;;;5056703;28;20025;-71
2021/06/04 02:07:07;;;;;;;10.48;5.80;;;;;;;;;;5074638;28;20020;-69
2021/06/04 02:09:33;;;;;;;12.57;6.55;;;;;;;;;;5074876;28;20440;-70
2021/06/04 02:12:00;;;;;;;11.55;6.10;;;;;;;;;;5074562;28;20028;-71
2021/06/04 02:14:28;;;;;;;11.23;5.35;;;;;;;;;;5074518;28;20038;-72
2021/06/04 02:17:12;;;;;;;13.10;6.10;;;;;;;;;;5074109;28;20377;-69
2021/06/04 02:19:53;;;;;;;9.27;5.72;;;;;;;;;;5073918;28;20036;-71
2021/06/04 02:22:32;;;;;;;10.00;6.07;;;;;;;;;;5056408;28;20024;-70
2021/06/04 02:25:03;;;;;;;9.23;5.82;;;;;;;;;;5056069;28;20084;-70
2021/06/04 02:27:50;;;;;;;18.38;6.85;;;;;;;;;;5074274;28;20028;-72
2021/06/04 02:30:20;;;;;;;9.23;6.50;;;;;;;;;;5074224;28;20025;-69
2021/06/04 02:32:52;;;;;;;12.88;6.38;;;;;;;;;;5074371;28;20028;-69
2021/06/04 02:35:29;;;;;;;12.95;6.50;;;;;;;;;;5056089;28;20105;-68
2021/06/04 02:37:58;;;;;;;14.80;7.55;;;;;;;;;;5073996;28;20035;-70
2021/06/04 02:40:27;;;;;;;10.85;5.68;;;;;;;;;;5074007;28;20031;-70
2021/06/04 02:42:57;;;;;;;11.27;6.53;;;;;;;;;;5055963;28;20093;-68
2021/06/04 02:45:38;;;;;;;12.05;6.82;;;;;;;;;;5073874;28;20021;-70
2021/06/04 02:48:10;;;;;;;7.53;5.68;;;;;;;;;;5055914;28;20477;-70
2021/06/04 02:50:40;;;;;;;12.07;6.13;;;;;;;;;;5073829;28;20103;-72
2021/06/04 02:53:14;;;;;;;14.23;6.40;;;;;;;;;;5073724;28;20032;-70
2021/06/04 02:55:45;;;;;;;10.82;6.75;;;;;;;;;;5055747;28;20028;-71
2021/06/04 02:58:11;;;;;;;9.45;6.32;;;;;;;;;;5073639;28;20028;-70
2021/06/04 03:00:42;;;;;;;12.30;7.13;;;;;;;;;;5073393;28;20064;-71
2021/06/04 03:03:09;;;;;;;10.88;6.63;;;;;;;;;;5073643;28;20032;-70
2021/06/04 03:05:53;;;;;;;11.98;6.50;;;;;;;;;;5073732;28;20127;-70
2021/06/04 03:08:21;;;;;;;10.57;7.28;;;;;;;;;;5055605;28;20021;-72
2021/06/04 03:10:49;;;;;;;16.23;7.65;;;;;;;;;;5073484;28;20016;-73
2021/06/04 03:13:17;;;;;;;13.07;6.97;;;;;;;;;;5073392;28;20111;-73
2021/06/04 03:15:48;;;;;;;13.18;7.53;;;;;;;;;;5055343;28;20020;-71
2021/06/04 03:18:16;;;;;;;11.52;7.15;;;;;;;;;;5073306;28;20025;-72
2021/06/04 03:20:45;;;;;;;14.93;7.18;;;;;;;;;;5073362;28;20067;-71
2021/06/04 03:23:13;;;;;;;15.05;7.28;;;;;;;;;;5073251;28;20115;-69
2021/06/04 03:25:41;;;;;;;12.35;7.13;;;;;;;;;;5072971;28;20446;-71
2021/06/04 03:28:09;;;;;;;13.98;7.25;;;;;;;;;;5055180;28;20029;-70
2021/06/04 03:30:38;;;;;;;14.18;6.93;;;;;;;;;;5072977;28;20028;-70
2021/06/04 03:33:05;;;;;;;11.55;7.07;;;;;;;;;;5054883;28;20372;-72
2021/06/04 03:35:31;;;;;;;10.82;6.28;;;;;;;;;;5073148;28;20059;-71
2021/06/04 03:37:58;;;;;;;11.13;7.07;;;;;;;;;;5073021;28;20064;-71
2021/06/04 03:40:27;;;;;;;11.10;6.88;;;;;;;;;;5073413;28;20404;-70
2021/06/04 03:42:54;;;;;;;19.63;7.90;;;;;;;;;;5072996;28;20461;-71
2021/06/04 03:45:23;;;;;;;21.33;7.50;;;;;;;;;;5055009;28;20132;-72
2021/06/04 03:47:49;;;;;;;21.67;8.82;;;;;;;;;;5072707;28;20056;-72
2021/06/04 03:50:16;;;;;;;22.02;8.32;;;;;;;;;;5073010;28;20025;-69
2021/06/04 03:52:43;;;;;;;13.27;7.32;;;;;;;;;;5072976;28;20021;-71
2021/06/04 03:55:11;;;;;;;14.45;9.10;;;;;;;;;;5072879;28;20369;-70
2021/06/04 03:57:38;;;;;;;20.67;8.50;;;;;;;;;;5073068;28;20028;-69
2021/06/04 04:00:10;;;;;;;17.48;8.35;;;;;;;;;;5054902;28;20082;-71
2021/06/04 04:02:36;;;;;;;17.80;8.18;;;;;;;;;;5072841;28;20028;-69
2021/06/04 04:05:04;;;;;;;10.50;7.40;;;;;;;;;;5072517;28;20020;-70
2021/06/04 04:07:30;;;;;;;17.65;8.50;;;;;;;;;;5072998;28;20553;-69
2021/06/04 04:09:57;;;;;;;13.27;7.93;;;;;;;;;;5054818;28;20423;-70
2021/06/04 04:12:25;;;;;;;14.48;8.65;;;;;;;;;;5054680;28;20469;-70
2021/06/04 04:14:52;;;;;;;17.67;8.38;;;;;;;;;;5072724;28;20542;-70
2021/06/04 04:17:18;;;;;;;12.63;8.13;;;;;;;;;;5072603;28;20024;-69
2021/06/04 04:19:45;;;;;;;13.15;8.63;;;;;;;;;;5054627;28;20120;-71
2021/06/04 04:22:11;;;;;;;18.27;9.00;;;;;;;;;;5072910;28;20445;-69
2021/06/04 04:24:38;;;;;;;18.95;9.20;;;;;;;;;;5072198;28;20132;-68
2021/06/04 04:27:05;;;;;;;16.00;8.80;;;;;;;;;;5054566;28;20028;-70
2021/06/04 04:29:33;;;;;;;14.88;8.82;;;;;;;;;;5072561;28;20032;-68
2021/06/04 04:32:02;;;;;;;18.98;8.63;;;;;;;;;;5072605;28;20028;-68
2021/06/04 04:34:29;;;;;;;16.85;8.70;;;;;;;;;;5072235;28;20552;-69
2021/06/04 04:36:57;;;;;;;14.23;9.18;;;;;;;;;;5054514;28;20028;-69
2021/06/04 04:39:25;;;;;;;19.20;8.55;;;;;;;;;;5072407;28;20020;-70
2021/06/04 04:41:52;;;;;;;16.75;9.00;;;;;;;;;;5072513;28;20115;-68
2021/06/04 04:44:19;;;;;;;14.77;8.70;;;;;;;;;;5075418;28;20370;-69
2021/06/04 04:46:46;;;;;;;14.98;8.10;;;;;;;;;;5076125;28;20417;-68
2021/06/04 04:49:13;;;;;;;15.10;9.45;;;;;;;;;;5058102;28;20068;-68
2021/06/04 04:51:39;;;;;;;17.75;9.20;;;;;;;;;;5076324;28;20025;-70
2021/06/04 04:54:06;;;;;;;13.32;8.70;;;;;;;;;;5058004;28;20028;-71
2021/06/04 04:56:32;;;;;;;21.00;10.90;;;;;;;;;;5075964;28;20052;-70
2021/06/04 04:58:59;;;;;;;19.90;11.43;;;;;;;;;;5057879;28;20028;-69
2021/06/04 05:01:25;;;;;;;21.25;10.15;;;;;;;;;;5075833;28;20116;-69
2021/06/04 05:03:51;;;;;;;22.60;10.68;;;;;;;;;;5075592;28;20033;-69
2021/06/04 05:06:18;;;;;;;17.58;10.95;;;;;;;;;;5074818;28;20488;-69
2021/06/04 05:08:46;;;;;;;23.95;8.60;;;;;;;;;;5057784;28;20120;-69
2021/06/04 05:11:13;;;;;;;12.98;8.88;;;;;;;;;;5075820;28;20020;-71
2021/06/04 05:13:39;;;;;;;15.55;8.32;;;;;;;;;;5075546;28;20036;-69
2021/06/04 05:16:06;;;;;;;9.90;6.80;;;;;;;;;;5075497;28;20115;-69
2021/06/04 05:18:33;;;;;;;16.02;7.45;;;;;;;;;;5075244;28;20032;-70
2021/06/04 05:20:59;;;;;;;16.90;8.68;;;;;;;;;;5075573;28;20046;-68
2021/06/04 05:23:26;;;;;;;14.73;8.65;;;;;;;;;;5075271;28;20033;-69
2021/06/04 05:25:54;;;;;;;17.80;8.65;;;;;;;;;;5074905;28;20102;-69
2021/06/04 05:28:21;;;;;;;20.65;8.38;;;;;;;;;;5057375;28;20021;-70
2021/06/04 05:30:49;;;;;;;18.50;7.65;;;;;;;;;;5057365;28;20016;-69
2021/06/04 05:33:17;;;;;;;11.35;7.88;;;;;;;;;;5075214;28;20142;-70
2021/06/04 05:35:43;;;;;;;15.98;8.43;;;;;;;;;;5075440;28;20029;-71
2021/06/04 05:38:10;;;;;;;14.20;7.97;;;;;;;;;;5057226;28;20477;-73
2021/06/04 05:40:40;;;;;;;11.40;6.70;;;;;;;;;;5057072;28;20480;-70
2021/06/04 05:43:08;;;;;;;18.67;7.50;;;;;;;;;;5075196;28;20021;-71
2021/06/04 05:45:35;;;;;;;8.05;6.32;;;;;;;;;;5057084;28;20111;-71
2021/06/04 05:48:02;;;;;;;13.60;7.07;;;;;;;;;;5075571;28;20028;-72
2021/06/04 05:50:31;;;;;;;18.08;6.78;;;;;;;;;;5056930;28;20115;-70
2021/06/04 05:52:57;;;;;;;7.38;5.45;;;;;;;;;;5056848;28;20578;-72
2021/06/04 05:55:25;;;;;;;12.57;6.07;;;;;;;;;;5073924;28;20111;-73
2021/06/04 05:57:52;;;;;;;7.18;5.00;;;;;;;;;;5074427;28;20040;-72
2021/06/04 06:00:25;;;;;;;11.45;6.38;;;;;;;;;;5056838;28;20155;-72
2021/06/04 06:02:52;;;;;;;8.02;5.43;;;;;;;;;;5074711;28;20029;-73
2021/06/04 06:05:18;;;;;;;11.10;5.45;;;;;;;;;;5074510;28;20099;-74
2021/06/04 06:07:45;;;;;;;8.13;6.05;;;;;;;;;;5056496;28;20101;-74
2021/06/04 06:10:11;;;;;;;9.48;5.10;;;;;;;;;;5057658;28;20158;-72
2021/06/04 06:12:38;;;;;;;8.82;5.35;;;;;;;;;;5058505;28;20024;-74
2021/06/04 06:15:05;;;;;;;11.82;4.90;;;;;;;;;;5058380;28;20040;-74
2021/06/04 06:17:31;;;;;;;10.82;5.45;;;;;;;;;;5057757;28;20028;-75
2021/06/04 06:19:57;;;;;;;11.35;5.25;;;;;;;;;;5058575;28;20490;-74
2021/06/04 06:22:24;;;;;;;12.20;5.40;;;;;;;;;;5074850;28;20512;-74
2021/06/04 06:24:51;;;;;;;7.60;4.70;;;;;;;;;;5075571;28;20171;-73
2021/06/04 06:27:17;;;;;;;5.68;4.65;;;;;;;;;;5075232;28;20021;-73
2021/06/04 06:29:43;;;;;;;6.03;4.70;;;;;;;;;;5057358;28;20078;-75
2021/06/04 06:32:12;;;;;;;8.32;4.68;;;;;;;;;;5074790;28;20052;-73
2021/06/04 06:34:39;;;;;;;8.52;4.68;;;18.60;99.90;;;;;;5073963;28;20020;-73
2021/06/04 06:37:06;;;;;;;10.73;5.40;;;18.50;99.90;;;;;;5073583;28;20538;-73
2021/06/04 06:39:33;;;;;;;6.97;4.68;;;18.70;99.70;;;;;;5055774;28;20041;-74
2021/06/04 06:42:03;;;;;;;10.20;5.63;;;18.70;99.10;;;;;;5074008;28;20068;-74
2021/06/04 06:44:30;;;;;;;15.55;5.10;;;18.80;99.90;;;;;;5055546;28;20195;-73
2021/06/04 06:46:56;;;;;;;7.72;5.00;;;18.90;99.90;;;;;;5073962;28;20373;-73
2021/06/04 06:49:22;;;;;;;7.00;5.30;;;19.00;99.30;;;;;;5073622;28;20036;-73
2021/06/04 06:51:49;;;;;;;9.25;5.00;;;19.10;98.40;;;;;;5073746;28;20107;-73
2021/06/04 06:54:19;;;;;;;7.05;5.00;;;19.20;99.60;;;;;;5056412;28;20115;-72
2021/06/04 06:56:47;;;;;;;11.27;5.07;;;19.30;98.20;;;;;;5073516;28;20033;-72
2021/06/04 06:59:13;;;;;;;8.35;4.88;;;19.40;98.80;;;;;;5073404;28;20082;-72
2021/06/04 07:01:40;;;;;;;6.32;3.70;;;19.60;99.00;;;;;;5073103;28;20050;-72
2021/06/04 07:04:06;;;;;;;8.43;4.20;;;19.60;96.40;;;;;;5055063;28;20025;-71
2021/06/04 07:06:36;;;;;;;9.00;4.70;;;19.80;96.80;;;;;;5072939;28;20407;-73
2021/06/04 07:09:06;;;;;;;8.52;4.75;;;19.90;96.60;;;;;;5055204;28;20028;-71
2021/06/04 07:11:35;;;;;;;7.00;4.15;;;20.00;97.50;;;;;;5055223;28;20112;-72
2021/06/04 07:14:01;;;;;;;6.20;3.90;;;20.20;96.50;;;;;;5054791;28;20024;-70
2021/06/04 07:16:27;;;;;;;5.32;4.45;;;20.30;96.50;;;;;;5055200;28;20024;-73
2021/06/04 07:18:54;;;;;;;7.47;5.00;;;20.40;97.30;;;;;;5055057;28;20369;-74
2021/06/04 07:21:24;;;;;;;8.90;4.38;;;20.50;96.80;;;;;;5055292;28;20048;-72
2021/06/04 07:23:50;;;;;;;6.63;3.95;;;20.60;96.30;;;;;;5053515;28;20041;-72
2021/06/04 07:26:18;;;;;;;5.00;4.13;;;20.80;96.30;;;;;;5072591;28;20025;-73
2021/06/04 07:28:44;;;;;;;7.57;4.55;;;20.90;95.20;;;;;;5055068;28;20056;-71
2021/06/04 07:31:13;;;;;;;7.60;4.20;;;21.00;95.10;;;;;;5072987;28;20060;-70
2021/06/04 07:33:51;;;;;;;7.35;3.50;;;21.10;93.80;;;;;;5072982;28;20035;-71
2021/06/04 07:36:24;;;;;;;6.75;4.60;;;21.10;95.90;;;;;;5073020;28;20024;-71
2021/06/04 07:38:53;;;;;;;7.80;4.00;;;21.30;94.50;;;;;;5054371;28;20055;-71
2021/06/04 07:41:19;;;;;;;7.90;4.03;;;21.40;94.30;;;;;;5054670;28;20024;-71
2021/06/04 07:43:46;;;;;;;7.07;3.42;;;21.50;93.20;;;;;;5072863;28;20039;-72
2021/06/04 07:46:15;;;;;;;6.30;2.85;;;21.70;90.70;;;;;;5054733;28;20063;-71
2021/06/04 07:48:41;;;;;;;3.17;2.50;;;21.90;90.50;;;;;;5072970;28;20063;-71
2021/06/04 07:51:10;;;;;;;3.92;3.38;;;22.00;91.50;;;;;;5071893;28;20267;-70
2021/06/04 07:53:39;;;;;;;9.98;2.78;;;22.10;89.00;;;;;;5071813;28;20405;-71
2021/06/04 07:56:06;;;;;;;12.27;3.63;;;22.20;88.50;;;;;;5072540;28;20102;-70
2021/06/04 07:58:32;;;;;;;7.43;3.60;;;22.30;88.10;;;;;;5072534;28;20086;-70
2021/06/04 08:01:02;;;;;;;2.55;2.10;;;22.40;85.10;;;;;;5072650;28;20111;-70
2021/06/04 08:03:28;;;;;;;3.35;2.47;;;22.50;82.20;;;;;;5072574;28;20040;-71
2021/06/04 08:05:55;;;;;;;5.97;2.78;;;22.60;83.00;;;;;;5072911;28;20025;-70
2021/06/04 08:08:22;;;;;;;5.05;1.98;;;22.70;85.40;;;;;;5054518;28;20025;-68
2021/06/04 08:10:48;;;;;;;3.38;1.95;;;22.80;81.30;;;;;;5072788;28;20029;-70
2021/06/04 08:13:19;;;;;;;3.80;2.40;;;22.90;81.60;;;;;;5072581;28;20113;-70
2021/06/04 08:15:53;;;;;;;5.95;2.65;;;;;;;;;;5072510;28;20029;-70
2021/06/04 08:18:21;;;;;;;4.00;2.30;;;;;;;;;;5074174;28;20404;-70
2021/06/04 08:20:48;;;;;;;5.28;2.60;;;23.20;78.00;;;;;;5076402;28;20078;-71
2021/06/04 08:23:18;;;;;;;3.17;2.25;;;23.40;78.30;;;;;;5057940;28;20082;-70
2021/06/04 08:25:48;;;;;;;5.47;2.73;;;23.50;76.60;;;;;;5076607;28;20129;-70
2021/06/04 08:28:17;;;;;;;8.57;2.50;;;23.60;74.90;;;;;;5076203;28;20676;-69
2021/06/04 08:30:44;;;;;;;4.82;2.15;;;23.70;74.80;;;;;;5076351;28;20101;-71
2021/06/04 08:33:10;;;;;;;4.63;1.83;;;23.70;75.10;;;;;;5076308;28;20033;-70
2021/06/04 08:35:37;;;;;;;1.70;1.55;;;23.90;71.40;;;;;;5076172;28;20029;-70
2021/06/04 08:38:04;;;;;;;5.38;2.00;;;24.00;69.80;;;;;;5057934;28;20373;-70
2021/06/04 08:40:33;;;;;;;6.32;2.35;;;24.20;75.80;;;;;;5057866;28;20033;-70
2021/06/04 08:43:16;;;;;;;3.25;1.70;;;24.40;71.10;;;;;;5076280;28;20033;-70
2021/06/04 08:45:53;;;;;;;4.40;2.25;;;24.40;65.80;;;;;;5076007;28;20028;-72
2021/06/04 08:48:22;;;;;;;3.17;1.90;;;;;;;;;;5075987;28;20032;-69
2021/06/04 08:51:02;;;;;;;4.45;1.80;;;24.60;68.30;;;;;;5057963;28;20352;-70
2021/06/04 08:53:31;;;;;;;1.50;1.40;;;24.70;62.10;;;;;;5075710;28;20107;-70
2021/06/04 08:56:04;;;;;;;2.90;1.50;;;24.70;62.20;;;;;;5057650;28;20025;-69
2021/06/04 08:58:47;;;;;;;2.70;1.80;;;24.80;62.40;;;;;;5075661;28;20033;-69
2021/06/04 09:01:21;;;;;;;6.13;1.52;;;25.00;63.70;;;;;;5057835;28;20029;-70
2021/06/04 09:03:58;;;;;;;4.28;1.75;;;25.40;62.10;;;;;;5057715;28;20032;-69
2021/06/04 09:06:29;;;;;;;8.80;1.73;;;25.40;62.40;;;;;;5075371;28;20092;-70
2021/06/04 09:09:18;;;;;;;1.10;1.05;;;25.50;60.80;;;;;;5075607;28;20058;-71
2021/06/04 09:11:48;;;;;;;1.60;1.40;;;25.60;59.80;;;;;;5075578;28;20031;-69
2021/06/04 09:14:13;;;;;;;3.55;1.90;;;25.80;60.70;;;;;;5057662;28;20028;-71
2021/06/04 09:16:58;;;;;;;1.83;1.60;;;25.90;60.80;;;;;;5075487;28;20025;-70
2021/06/04 09:19:30;;;;;;;5.05;1.80;;;26.20;60.80;;;;;;5056726;28;20036;-70
2021/06/04 09:21:56;;;;;;;1.45;1.42;;;26.20;58.60;;;;;;5057019;28;20032;-70
2021/06/04 09:24:37;;;;;;;3.55;1.50;;;26.30;57.60;;;;;;5075039;28;20048;-70
2021/06/04 09:27:04;;;;;;;1.98;1.10;;;26.40;58.60;;;;;;5075445;28;20020;-72
2021/06/04 09:29:31;;;;;;;24.42;3.00;;;26.50;55.10;;;;;;5056075;28;20393;-71
2021/06/04 09:32:20;;;;;;;2.78;1.42;;;26.60;56.10;;;;;;5075071;28;20028;-68
2021/06/04 09:34:47;;;;;;;2.40;1.25;;;26.60;55.60;;;;;;5075117;28;20017;-72
2021/06/04 09:37:33;;;;;;;4.57;1.70;;;26.70;55.70;;;;;;5057086;28;20435;-69
2021/06/04 09:40:20;;;;;;;6.93;1.52;;;26.90;55.50;;;;;;5056717;28;20036;-72
2021/06/04 09:42:56;;;;;;;2.78;1.27;;;27.00;56.10;;;;;;5057130;28;20428;-71
2021/06/04 09:45:52;;;;;;;2.88;1.80;;;;;;;;;;5075070;28;20028;-72
2021/06/04 09:48:42;;;;;;;1.58;1.08;;;27.30;57.10;;;;;;5036519;28;20037;-71
2021/06/04 09:51:25;;;;;;;1.65;1.40;;;26.90;53.80;;;;;;5056863;28;20465;-73
2021/06/04 09:53:54;;;;;;;1.55;1.20;;;26.50;54.10;;;;;;5075013;28;20074;-73
2021/06/04 09:56:30;;;;;;;2.20;1.20;;;26.40;52.70;;;;;;5074680;28;20737;-72
2021/06/04 09:59:00;;;;;;;1.25;1.15;;;26.80;53.80;;;;;;5074714;28;20028;-70
2021/06/04 10:01:29;;;;;;;1.90;1.48;;;27.00;54.50;;;;;;5074765;28;20031;-72
2021/06/04 10:04:03;;;;;;;1.50;1.40;;;27.30;53.80;;;;;;5056526;28;20116;-72
2021/06/04 10:06:34;;;;;;;4.57;1.45;;;27.40;55.50;;;;;;5073559;28;20024;-72
2021/06/04 10:09:22;;;;;;;3.72;2.08;;;27.80;55.50;;;;;;5074467;28;20025;-74
2021/06/04 10:12:00;;;;;;;2.45;1.58;;;28.10;56.20;;;;;;5074515;28;20054;-72
2021/06/04 10:14:45;;;;;;;1.60;1.45;;;;;;;;;;5056122;28;20078;-71
2021/06/04 10:17:48;;;;;;;2.53;1.88;;;28.50;54.20;;;;;;5074439;28;20051;-72
2021/06/04 10:20:44;;;;;;;1.60;1.50;;;28.60;52.30;;;;;;4973234;28;20091;-72
2021/06/04 10:23:23;;;;;;;1.50;1.40;;;28.70;52.50;;;;;;4973272;28;20045;-71
2021/06/04 10:26:03;;;;;;;1.48;1.42;;;28.90;52.00;;;;;;4973073;28;20046;-72
2021/06/04 10:28:52;;;;;;;2.33;1.63;;;29.20;52.90;;;;;;4972997;28;20031;-70
2021/06/04 10:31:18;;;;;;;3.03;1.40;;;;;;;;;;4957034;28;20222;-71
2021/06/04 10:34:07;;;;;;;2.35;1.70;;;;;;;;;;4973340;28;20030;-73
2021/06/04 10:36:36;;;;;;;1.98;1.60;;;;;;;;;;4954845;28;20042;-72
2021/06/04 10:39:38;;;;;;;1.58;1.48;;;28.60;48.30;;;;;;4972806;28;20423;-70
2021/06/04 10:42:22;;;;;;;2.08;1.30;;;28.30;49.50;;;;;;4967015;28;20055;-71
2021/06/04 10:45:13;;;;;;;3.70;1.60;;;27.40;51.20;;;;;;4973721;28;20034;-72
2021/06/04 10:47:58;;;;;;;2.72;1.40;;;27.20;53.10;;;;;;4972819;28;20066;-70
2021/06/04 10:50:47;;;;;;;7.60;2.00;;;;;;;;;;4972676;28;20067;-71
2021/06/04 10:53:31;;;;;;;7.57;2.22;;;;;;;;;;4972743;28;20069;-70
2021/06/04 10:56:00;;;;;;;4.20;1.77;;;;;;;;;;5031866;28;20032;-70
2021/06/04 10:58:39;;;;;;;2.67;1.60;;;;;;;;;;5055595;28;20025;-70
2021/06/04 11:01:06;;;;;;;2.47;1.70;;;;;;;;;;5055362;28;20139;-70
2021/06/04 11:03:51;;;;;;;2.15;1.48;;;;;;;;;;5073598;28;20024;-71
2021/06/04 11:06:24;;;;;;;1.58;1.42;;;;;;;;;;5073456;28;20457;-70
2021/06/04 11:09:16;;;;;;;2.65;1.55;;;;;;;;;;5073030;28;20036;-71
2021/06/04 11:11:55;;;;;;;2.10;1.80;;;;;;;;;;5067442;28;20101;-72
2021/06/04 11:14:23;;;;;;;7.03;2.10;;;;;;;;;;5073029;28;20471;-70
2021/06/04 11:17:00;;;;;;;10.02;2.92;;;;;;;;;;5073330;28;20017;-69
2021/06/04 11:19:34;;;;;;;8.77;1.80;;;;;;;;;;5072222;28;20029;-69
2021/06/04 11:22:04;;;;;;;1.98;1.30;;;;;;;;;;5071811;28;20028;-71
2021/06/04 11:24:39;;;;;;;3.80;1.58;;;;;;;;;;5072644;28;20053;-72
2021/06/04 11:27:06;;;;;;;2.63;1.70;;;;;;;;;;5054970;28;20029;-69
2021/06/04 11:29:36;;;;;;;4.60;1.50;;;;;;;;;;5073170;28;20029;-70
2021/06/04 11:32:38;;;;;;;4.15;1.40;;;;;;;;;;5038840;28;20507;-70
2021/06/04 11:35:16;;;;;;;3.33;1.52;;;;;;;;;;4972274;28;20415;-71
2021/06/04 11:37:57;;;;;;;1.58;1.45;;;;;;;;;;4971870;28;20069;-68
2021/06/04 11:40:39;;;;;;;3.95;1.30;;;;;;;;;;4971644;28;20023;-69
2021/06/04 11:43:14;;;;;;;3.65;1.50;;;;;;;;;;4972145;28;20183;-71
2021/06/04 11:45:42;;;;;;;5.18;1.48;;;;;;;;;;4971895;28;20034;-73
2021/06/04 11:48:26;;;;;;;3.85;1.33;;;;;;;;;;4971704;28;20130;-70
2021/06/04 11:51:12;;;;;;;1.35;1.25;;;;;;;;;;4971820;28;20391;-71
2021/06/04 11:53:39;;;;;;;2.92;1.50;;;;;;;;;;4970870;28;20027;-72
2021/06/04 11:56:11;;;;;;;1.67;1.50;;;;;;;;;;4971714;28;20038;-71
2021/06/04 11:58:37;;;;;;;3.00;1.20;;;;;;;;;;4971578;28;20038;-70
2021/06/04 12:01:21;;;;;;;7.22;1.23;;;;;;;;;;4971829;28;20094;-72
2021/06/04 12:03:51;;;;;;;1.58;1.48;;;;;;;;;;4971718;28;20143;-72
2021/06/04 12:06:25;;;;;;;2.03;1.75;;;;;;;;;;4971644;28;20101;-71
2021/06/04 12:08:52;;;;;;;2.75;1.27;;;;;;;;;;5013693;28;20047;-71
2021/06/04 12:11:18;;;;;;;1.60;1.50;;;;;;;;;;5073042;28;20021;-72
2021/06/04 12:13:45;;;;;;;2.55;1.13;;;;;;;;;;5072824;28;20063;-72
2021/06/04 12:19:01;;;;;;;2.03;1.30;;;;;;;;;;5072536;28;20115;-72
2021/06/04 12:21:40;;;;;;;1.40;1.30;;;;;;;;;;5054704;28;20029;-70
2021/06/04 12:24:18;;;;;;;5.68;1.38;;;;;;;;;;5072591;28;20056;-70
2021/06/04 12:26:52;;;;;;;2.78;1.45;;;;;;;;;;5072581;28;20031;-72
2021/06/04 12:29:25;;;;;;;1.60;1.50;;;;;;;;;;5072582;28;20021;-70
2021/06/04 12:32:07;;;;;;;2.35;1.27;;;42.00;34.40;;;;;;5054484;28;20073;-71
2021/06/04 12:34:42;;;;;;;2.90;1.50;;;41.70;34.60;;;;;;5054583;28;20099;-71
2021/06/04 12:37:12;;;;;;;3.33;1.40;;;;;;;;;;5072431;28;20032;-70
2021/06/04 12:39:42;;;;;;;4.32;1.30;;;;;;;;;;5072367;28;20147;-71
2021/06/04 12:42:15;;;;;;;1.65;1.13;;;;;;;;;;5054307;28;20051;-69
2021/06/04 12:44:51;;;;;;;4.05;1.20;;;;;;;;;;5072257;28;20489;-70
2021/06/04 12:47:20;;;;;;;3.78;1.48;;;;;;;;;;5072498;28;20048;-74
2021/06/04 12:49:47;;;;;;;4.53;1.58;;;;;;;;;;5072041;28;20029;-70
2021/06/04 12:52:17;;;;;;;2.65;1.42;;;;;;;;;;5071682;28;20025;-69
2021/06/04 12:54:43;;;;;;;1.95;1.40;;;;;;;;;;5054341;28;20025;-70
2021/06/04 12:57:20;;;;;;;3.97;1.60;;;;;;;;;;5072244;28;20078;-70
2021/06/04 12:59:49;;;;;;;2.95;1.55;;;;;;;;;;5072239;28;20469;-70
2021/06/04 13:02:21;;;;;;;2.22;1.58;;;41.20;33.50;;;;;;5072140;28;20115;-71
2021/06/04 13:04:51;;;;;;;1.90;1.40;;;41.50;33.50;;;;;;5071707;28;20029;-70
2021/06/04 13:07:28;;;;;;;4.00;2.17;;;41.70;33.70;;;;;;5075265;28;20461;-70
2021/06/04 13:10:15;;;;;;;3.97;1.85;;;42.70;33.30;;;;;;5075765;28;20032;-72
2021/06/04 13:12:42;;;;;;;2.35;1.70;;;43.10;33.60;;;;;;5075714;28;20017;-70
2021/06/04 13:15:18;;;;;;;5.18;1.88;;;43.20;31.70;;;;;;5075370;28;20024;-70
2021/06/04 13:18:07;;;;;;;2.90;2.10;;;43.30;32.00;;;;;;5075570;28;20111;-69
2021/06/04 13:20:40;;;;;;;3.88;1.80;;;43.80;32.00;;;;;;5057657;28;20465;-70
2021/06/04 13:23:08;;;;;;;4.63;1.90;;;44.30;31.50;;;;;;5075505;28;20029;-70
2021/06/04 13:25:34;;;;;;;1.77;1.40;;;44.30;31.20;;;;;;5074995;28;20076;-70
2021/06/04 13:28:06;;;;;;;1.42;1.33;;;42.00;32.60;;;;;;5075418;28;20032;-72
2021/06/04 13:30:33;;;;;;;2.10;1.77;;;42.00;33.20;;;;;;5075406;28;20037;-70
2021/06/04 13:33:00;;;;;;;2.83;1.60;;;43.40;32.60;;;;;;5075312;28;20028;-71
2021/06/04 13:35:33;;;;;;;1.52;1.20;;;43.70;31.60;;;;;;5075278;28;20029;-70
2021/06/04 13:38:04;;;;;;;1.58;1.20;;;43.80;32.60;;;;;;5075139;28;20028;-70
2021/06/04 13:40:33;;;;;;;;;;;43.90;31.30;;;;;;5075408;28;20036;-70
2021/06/04 13:43:04;;;;;;;5.43;1.70;;;44.20;31.10;;;;;;5075083;28;19904;-71
2021/06/04 13:45:42;;;;;;;1.63;1.23;;;44.00;30.40;;;;;;5075034;28;20027;-72
2021/06/04 13:48:16;;;;;;;4.30;1.40;;;44.60;30.50;;;;;;5075089;28;20041;-71
2021/06/04 13:50:48;;;;;;;1.50;1.40;;;44.70;31.60;;;;;;5075097;28;20047;-71
2021/06/04 13:53:15;;;;;;;3.35;1.58;;;44.80;30.80;;;;;;5075338;28;20021;-70
2021/06/04 13:55:44;;;;;;;12.50;5.68;;;45.30;30.30;;;;;;5075017;28;20021;-69
2021/06/04 13:58:20;;;;;;;6.95;2.45;;;45.80;33.60;;;;;;5075088;28;20468;-69
2021/06/04 14:01:05;;;;;;;3.83;1.38;;;;;;;;;;5074833;28;20025;-68
2021/06/04 14:03:33;;;;;;;4.13;2.20;;;44.00;29.10;;;;;;5074509;28;20107;-68
2021/06/04 14:06:24;;;;;;;1.50;1.40;;;43.50;30.60;;;;;;5074228;28;20029;-69
2021/06/04 14:09:36;;;;;;;3.67;2.28;;;43.30;29.60;;;;;;5074235;28;20024;-68
2021/06/04 14:12:30;;;;;;;3.50;1.77;;;44.10;30.20;;;;;;4990623;28;20515;-69
2021/06/04 14:14:57;;;;;;;8.50;3.53;;;43.80;29.70;;;;;;4977451;28;20562;-69
2021/06/04 14:17:29;;;;;;;6.90;3.63;;;44.30;32.60;;;;;;4989986;28;20049;-67
2021/06/04 14:20:06;;;;;;;3.17;1.77;;;44.80;32.00;;;;;;4990429;28;20046;-70